sensor_id;sensor_type;location;lat;lon;timestamp;temperature;humidity
41720;DHT22;27405;53.316;-6.294;2023-01-25T00:01:46;10.20;99.90
41720;DHT22;27405;53.316;-6.294;2023-01-25T00:04:12;10.20;99.90
41720;DHT22;27405;53.316;-6.294;2023-01-25T00:06:38;10.20;99.90
41720;DHT22;27405;53.316;-6.294;2023-01-25T00:09:04;10.20;99.90
41720;DHT22;27405;53.316;-6.294;2023-01-25T00:11:30;10.20;99.90
41720;DHT22;27405;53.316;-6.294;2023-01-25T00:13:56;10.20;99.90
41720;DHT22;27405;53.316;-6.294;2023-01-25T00:16:22;10.20;99.90
41720;DHT22;27405;53.316;-6.294;2023-01-25T00:18:48;10.20;99.90
41720;DHT22;27405;53.316;-6.294;2023-01-25T00:21:19;10.20;99.90
41720;DHT22;27405;53.316;-6.294;2023-01-25T00:23:46;10.20;99.90
41720;DHT22;27405;53.316;-6.294;2023-01-25T00:26:12;10.20;99.90
41720;DHT22;27405;53.316;-6.294;2023-01-25T00:28:38;10.20;99.90
41720;DHT22;27405;53.316;-6.294;2023-01-25T00:31:06;10.20;99.90
41720;DHT22;27405;53.316;-6.294;2023-01-25T00:33:50;10.30;99.90
41720;DHT22;27405;53.316;-6.294;2023-01-25T00:39:04;10.30;99.90
41720;DHT22;27405;53.316;-6.294;2023-01-25T00:41:30;10.30;99.90
41720;DHT22;27405;53.316;-6.294;2023-01-25T00:43:56;10.30;99.90
41720;DHT22;27405;53.316;-6.294;2023-01-25T00:46:22;10.30;99.90
41720;DHT22;27405;53.316;-6.294;2023-01-25T00:48:48;10.30;99.90
41720;DHT22;27405;53.316;-6.294;2023-01-25T00:51:14;10.40;99.90
41720;DHT22;27405;53.316;-6.294;2023-01-25T00:53:40;10.30;99.90
41720;DHT22;27405;53.316;-6.294;2023-01-25T00:56:06;10.40;99.90
41720;DHT22;27405;53.316;-6.294;2023-01-25T00:58:32;10.40;99.90
41720;DHT22;27405;53.316;-6.294;2023-01-25T01:00:58;10.40;99.90
41720;DHT22;27405;53.316;-6.294;2023-01-25T01:03:23;10.40;99.90
41720;DHT22;27405;53.316;-6.294;2023-01-25T01:06:10;10.40;99.90
41720;DHT22;27405;53.316;-6.294;2023-01-25T01:08:40;10.50;99.90
41720;DHT22;27405;53.316;-6.294;2023-01-25T01:11:08;10.50;99.90
41720;DHT22;27405;53.316;-6.294;2023-01-25T01:13:35;10.50;99.90
41720;DHT22;27405;53.316;-6.294;2023-01-25T01:16:03;10.50;99.90
41720;DHT22;27405;53.316;-6.294;2023-01-25T01:18:36;10.50;99.90
41720;DHT22;27405;53.316;-6.294;2023-01-25T01:21:02;10.60;99.90
41720;DHT22;27405;53.316;-6.294;2023-01-25T01:23:29;10.60;99.90
41720;DHT22;27405;53.316;-6.294;2023-01-25T01:25:55;10.50;99.90
41720;DHT22;27405;53.316;-6.294;2023-01-25T01:28:23;10.50;99.90
41720;DHT22;27405;53.316;-6.294;2023-01-25T01:30:49;10.50;99.90
41720;DHT22;27405;53.316;-6.294;2023-01-25T01:33:15;10.50;99.90
41720;DHT22;27405;53.316;-6.294;2023-01-25T01:35:40;10.40;99.90
41720;DHT22;27405;53.316;-6.294;2023-01-25T01:38:06;10.40;99.90
41720;DHT22;27405;53.316;-6.294;2023-01-25T01:40:32;10.40;99.90
41720;DHT22;27405;53.316;-6.294;2023-01-25T01:43:02;10.30;99.90
41720;DHT22;27405;53.316;-6.294;2023-01-25T01:50:58;10.30;99.90
41720;DHT22;27405;53.316;-6.294;2023-01-25T01:53:25;10.30;99.90
41720;DHT22;27405;53.316;-6.294;2023-01-25T01:55:55;10.30;99.90
41720;DHT22;27405;53.316;-6.294;2023-01-25T01:58:23;10.30;99.90
41720;DHT22;27405;53.316;-6.294;2023-01-25T02:00:49;10.30;99.90
41720;DHT22;27405;53.316;-6.294;2023-01-25T02:03:15;10.30;99.90
41720;DHT22;27405;53.316;-6.294;2023-01-25T02:06:03;10.20;99.90
41720;DHT22;27405;53.316;-6.294;2023-01-25T02:08:34;10.20;99.90
41720;DHT22;27405;53.316;-6.294;2023-01-25T02:11:01;10.20;99.90
41720;DHT22;27405;53.316;-6.294;2023-01-25T02:13:27;10.20;99.90
41720;DHT22;27405;53.316;-6.294;2023-01-25T02:15:53;10.20;99.90
41720;DHT22;27405;53.316;-6.294;2023-01-25T02:18:21;10.20;99.90
41720;DHT22;27405;53.316;-6.294;2023-01-25T02:20:50;10.20;99.90
41720;DHT22;27405;53.316;-6.294;2023-01-25T02:25:45;10.20;99.90
41720;DHT22;27405;53.316;-6.294;2023-01-25T02:30:43;10.20;99.90
41720;DHT22;27405;53.316;-6.294;2023-01-25T02:33:09;10.20;99.90
41720;DHT22;27405;53.316;-6.294;2023-01-25T02:35:44;10.20;99.90
41720;DHT22;27405;53.316;-6.294;2023-01-25T02:38:13;10.20;99.90
41720;DHT22;27405;53.316;-6.294;2023-01-25T02:43:12;10.20;99.90
41720;DHT22;27405;53.316;-6.294;2023-01-25T02:45:38;10.20;99.90
41720;DHT22;27405;53.316;-6.294;2023-01-25T02:48:04;10.20;99.90
41720;DHT22;27405;53.316;-6.294;2023-01-25T02:50:29;10.20;99.90
41720;DHT22;27405;53.316;-6.294;2023-01-25T02:52:55;10.20;99.90
41720;DHT22;27405;53.316;-6.294;2023-01-25T02:55:21;10.20;99.90
41720;DHT22;27405;53.316;-6.294;2023-01-25T02:57:46;10.20;99.90
41720;DHT22;27405;53.316;-6.294;2023-01-25T03:00:12;10.20;99.90
41720;DHT22;27405;53.316;-6.294;2023-01-25T03:02:38;10.20;99.90
41720;DHT22;27405;53.316;-6.294;2023-01-25T03:05:04;10.20;99.90
41720;DHT22;27405;53.316;-6.294;2023-01-25T03:07:30;10.30;99.90
41720;DHT22;27405;53.316;-6.294;2023-01-25T03:09:55;10.30;99.90
41720;DHT22;27405;53.316;-6.294;2023-01-25T03:12:21;10.20;99.90
41720;DHT22;27405;53.316;-6.294;2023-01-25T03:14:46;10.20;99.90
41720;DHT22;27405;53.316;-6.294;2023-01-25T03:17:12;10.20;99.90
41720;DHT22;27405;53.316;-6.294;2023-01-25T03:19:38;10.30;99.90
41720;DHT22;27405;53.316;-6.294;2023-01-25T03:22:03;10.30;99.90
41720;DHT22;27405;53.316;-6.294;2023-01-25T03:24:31;10.20;99.90
41720;DHT22;27405;53.316;-6.294;2023-01-25T03:26:56;10.20;99.90
41720;DHT22;27405;53.316;-6.294;2023-01-25T03:29:43;10.20;99.90
41720;DHT22;27405;53.316;-6.294;2023-01-25T03:32:09;10.30;99.90
41720;DHT22;27405;53.316;-6.294;2023-01-25T03:34:35;10.30;99.90
41720;DHT22;27405;53.316;-6.294;2023-01-25T03:37:01;10.30;99.90
41720;DHT22;27405;53.316;-6.294;2023-01-25T03:39:27;10.20;99.90
41720;DHT22;27405;53.316;-6.294;2023-01-25T03:41:53;10.20;99.90
41720;DHT22;27405;53.316;-6.294;2023-01-25T03:44:19;10.20;99.90
41720;DHT22;27405;53.316;-6.294;2023-01-25T03:46:44;10.20;99.90
41720;DHT22;27405;53.316;-6.294;2023-01-25T03:49:10;10.20;99.90
41720;DHT22;27405;53.316;-6.294;2023-01-25T03:51:36;10.20;99.90
41720;DHT22;27405;53.316;-6.294;2023-01-25T03:54:02;10.20;99.90
41720;DHT22;27405;53.316;-6.294;2023-01-25T03:56:27;10.20;99.90
41720;DHT22;27405;53.316;-6.294;2023-01-25T03:58:53;10.20;99.90
41720;DHT22;27405;53.316;-6.294;2023-01-25T04:01:19;10.30;99.90
41720;DHT22;27405;53.316;-6.294;2023-01-25T04:03:44;10.20;99.90
41720;DHT22;27405;53.316;-6.294;2023-01-25T04:06:11;10.20;99.90
41720;DHT22;27405;53.316;-6.294;2023-01-25T04:08:36;10.20;99.90
41720;DHT22;27405;53.316;-6.294;2023-01-25T04:11:04;10.30;99.90
41720;DHT22;27405;53.316;-6.294;2023-01-25T04:13:31;10.30;99.90
41720;DHT22;27405;53.316;-6.294;2023-01-25T04:15:59;10.30;99.90
41720;DHT22;27405;53.316;-6.294;2023-01-25T04:18:25;10.30;99.90
41720;DHT22;27405;53.316;-6.294;2023-01-25T04:20:55;10.30;99.90
41720;DHT22;27405;53.316;-6.294;2023-01-25T04:23:21;10.30;99.90
41720;DHT22;27405;53.316;-6.294;2023-01-25T04:28:19;10.40;99.90
41720;DHT22;27405;53.316;-6.294;2023-01-25T04:30:45;10.40;99.90
41720;DHT22;27405;53.316;-6.294;2023-01-25T04:33:10;10.40;99.90
41720;DHT22;27405;53.316;-6.294;2023-01-25T04:35:37;10.40;99.90
41720;DHT22;27405;53.316;-6.294;2023-01-25T04:38:02;10.40;99.90
41720;DHT22;27405;53.316;-6.294;2023-01-25T04:40:28;10.40;99.90
41720;DHT22;27405;53.316;-6.294;2023-01-25T04:42:54;10.40;99.90
41720;DHT22;27405;53.316;-6.294;2023-01-25T04:45:20;10.40;99.90
41720;DHT22;27405;53.316;-6.294;2023-01-25T04:47:47;10.40;99.90
41720;DHT22;27405;53.316;-6.294;2023-01-25T04:50:13;10.40;99.90
41720;DHT22;27405;53.316;-6.294;2023-01-25T04:52:39;10.40;99.90
41720;DHT22;27405;53.316;-6.294;2023-01-25T04:55:04;10.40;99.90
41720;DHT22;27405;53.316;-6.294;2023-01-25T04:57:30;10.50;99.90
41720;DHT22;27405;53.316;-6.294;2023-01-25T04:59:56;10.40;99.90
41720;DHT22;27405;53.316;-6.294;2023-01-25T05:02:21;10.40;99.90
41720;DHT22;27405;53.316;-6.294;2023-01-25T05:04:47;10.40;99.90
41720;DHT22;27405;53.316;-6.294;2023-01-25T05:07:13;10.40;99.90
41720;DHT22;27405;53.316;-6.294;2023-01-25T05:09:39;10.40;99.90
41720;DHT22;27405;53.316;-6.294;2023-01-25T05:12:04;10.40;99.90
41720;DHT22;27405;53.316;-6.294;2023-01-25T05:14:39;10.40;99.90
41720;DHT22;27405;53.316;-6.294;2023-01-25T05:17:05;10.40;99.90
41720;DHT22;27405;53.316;-6.294;2023-01-25T05:19:31;10.40;99.90
41720;DHT22;27405;53.316;-6.294;2023-01-25T05:21:58;10.40;99.90
41720;DHT22;27405;53.316;-6.294;2023-01-25T05:24:28;10.40;99.90
41720;DHT22;27405;53.316;-6.294;2023-01-25T05:26:55;10.30;99.90
41720;DHT22;27405;53.316;-6.294;2023-01-25T05:29:31;10.30;99.90
41720;DHT22;27405;53.316;-6.294;2023-01-25T05:32:01;10.40;99.90
41720;DHT22;27405;53.316;-6.294;2023-01-25T05:34:27;10.30;99.90
41720;DHT22;27405;53.316;-6.294;2023-01-25T05:36:53;10.30;99.90
41720;DHT22;27405;53.316;-6.294;2023-01-25T05:39:19;10.30;99.90
41720;DHT22;27405;53.316;-6.294;2023-01-25T05:41:44;10.30;99.90
41720;DHT22;27405;53.316;-6.294;2023-01-25T05:44:10;10.30;99.90
41720;DHT22;27405;53.316;-6.294;2023-01-25T05:46:36;10.30;99.90
41720;DHT22;27405;53.316;-6.294;2023-01-25T05:49:01;10.30;99.90
41720;DHT22;27405;53.316;-6.294;2023-01-25T05:51:27;10.30;99.90
41720;DHT22;27405;53.316;-6.294;2023-01-25T05:53:54;10.30;99.90
41720;DHT22;27405;53.316;-6.294;2023-01-25T05:56:20;10.20;99.90
41720;DHT22;27405;53.316;-6.294;2023-01-25T05:58:46;10.20;99.90
41720;DHT22;27405;53.316;-6.294;2023-01-25T06:01:11;10.20;99.90
41720;DHT22;27405;53.316;-6.294;2023-01-25T06:03:37;10.10;99.90
41720;DHT22;27405;53.316;-6.294;2023-01-25T06:06:03;10.10;99.90
41720;DHT22;27405;53.316;-6.294;2023-01-25T06:08:29;10.10;99.90
41720;DHT22;27405;53.316;-6.294;2023-01-25T06:10:56;10.00;99.90
41720;DHT22;27405;53.316;-6.294;2023-01-25T06:13:22;10.00;99.90
41720;DHT22;27405;53.316;-6.294;2023-01-25T06:15:55;10.00;99.90
41720;DHT22;27405;53.316;-6.294;2023-01-25T06:18:22;9.90;99.90
41720;DHT22;27405;53.316;-6.294;2023-01-25T06:20:51;9.90;99.90
41720;DHT22;27405;53.316;-6.294;2023-01-25T06:23:17;9.90;99.90
41720;DHT22;27405;53.316;-6.294;2023-01-25T06:25:43;9.90;99.90
41720;DHT22;27405;53.316;-6.294;2023-01-25T06:28:09;9.80;99.90
41720;DHT22;27405;53.316;-6.294;2023-01-25T06:30:34;9.80;99.90
41720;DHT22;27405;53.316;-6.294;2023-01-25T06:33:01;9.90;99.90
41720;DHT22;27405;53.316;-6.294;2023-01-25T06:35:27;9.80;99.90
41720;DHT22;27405;53.316;-6.294;2023-01-25T06:37:57;9.90;99.90
41720;DHT22;27405;53.316;-6.294;2023-01-25T06:40:23;9.90;99.90
41720;DHT22;27405;53.316;-6.294;2023-01-25T06:42:49;9.90;99.90
41720;DHT22;27405;53.316;-6.294;2023-01-25T06:45:15;9.90;99.90
41720;DHT22;27405;53.316;-6.294;2023-01-25T06:47:40;10.00;99.90
41720;DHT22;27405;53.316;-6.294;2023-01-25T06:50:07;10.00;99.90
41720;DHT22;27405;53.316;-6.294;2023-01-25T06:52:33;10.00;99.90
41720;DHT22;27405;53.316;-6.294;2023-01-25T06:55:05;10.00;99.90
41720;DHT22;27405;53.316;-6.294;2023-01-25T06:57:32;10.00;99.90
41720;DHT22;27405;53.316;-6.294;2023-01-25T06:59:59;10.10;99.90
41720;DHT22;27405;53.316;-6.294;2023-01-25T07:02:25;10.10;99.90
41720;DHT22;27405;53.316;-6.294;2023-01-25T07:04:51;10.10;99.90
41720;DHT22;27405;53.316;-6.294;2023-01-25T07:07:17;10.20;99.90
41720;DHT22;27405;53.316;-6.294;2023-01-25T07:09:42;10.20;99.90
41720;DHT22;27405;53.316;-6.294;2023-01-25T07:12:08;10.20;99.90
41720;DHT22;27405;53.316;-6.294;2023-01-25T07:14:34;10.20;99.90
41720;DHT22;27405;53.316;-6.294;2023-01-25T07:17:00;10.20;99.90
41720;DHT22;27405;53.316;-6.294;2023-01-25T07:19:25;10.30;99.90
41720;DHT22;27405;53.316;-6.294;2023-01-25T07:21:52;10.30;99.90
41720;DHT22;27405;53.316;-6.294;2023-01-25T07:24:18;10.30;99.90
41720;DHT22;27405;53.316;-6.294;2023-01-25T07:26:45;10.30;99.90
41720;DHT22;27405;53.316;-6.294;2023-01-25T07:29:13;10.30;99.90
41720;DHT22;27405;53.316;-6.294;2023-01-25T07:31:39;10.30;99.90
41720;DHT22;27405;53.316;-6.294;2023-01-25T07:34:07;10.30;99.90
41720;DHT22;27405;53.316;-6.294;2023-01-25T07:36:34;10.20;99.90
41720;DHT22;27405;53.316;-6.294;2023-01-25T07:39:00;10.20;99.90
41720;DHT22;27405;53.316;-6.294;2023-01-25T07:41:26;10.20;99.90
41720;DHT22;27405;53.316;-6.294;2023-01-25T07:43:52;10.20;99.90
41720;DHT22;27405;53.316;-6.294;2023-01-25T07:46:18;10.20;99.90
41720;DHT22;27405;53.316;-6.294;2023-01-25T07:48:46;10.10;99.90
41720;DHT22;27405;53.316;-6.294;2023-01-25T07:51:12;10.10;99.90
41720;DHT22;27405;53.316;-6.294;2023-01-25T07:53:58;10.10;99.90
41720;DHT22;27405;53.316;-6.294;2023-01-25T07:56:30;10.10;99.90
41720;DHT22;27405;53.316;-6.294;2023-01-25T07:58:57;10.10;99.90
41720;DHT22;27405;53.316;-6.294;2023-01-25T08:01:25;10.10;99.90
41720;DHT22;27405;53.316;-6.294;2023-01-25T08:03:52;10.00;99.90
41720;DHT22;27405;53.316;-6.294;2023-01-25T08:06:28;10.00;99.90
41720;DHT22;27405;53.316;-6.294;2023-01-25T08:09:04;9.90;99.90
41720;DHT22;27405;53.316;-6.294;2023-01-25T08:11:31;9.90;99.90
41720;DHT22;27405;53.316;-6.294;2023-01-25T08:13:57;9.80;99.90
41720;DHT22;27405;53.316;-6.294;2023-01-25T08:16:25;9.90;99.90
41720;DHT22;27405;53.316;-6.294;2023-01-25T08:18:56;9.80;99.90
41720;DHT22;27405;53.316;-6.294;2023-01-25T08:21:23;9.80;99.90
41720;DHT22;27405;53.316;-6.294;2023-01-25T08:23:50;9.90;99.90
41720;DHT22;27405;53.316;-6.294;2023-01-25T08:26:15;9.90;99.90
41720;DHT22;27405;53.316;-6.294;2023-01-25T08:28:42;10.00;99.90
41720;DHT22;27405;53.316;-6.294;2023-01-25T08:31:14;10.00;99.90
41720;DHT22;27405;53.316;-6.294;2023-01-25T08:33:40;10.00;99.90
41720;DHT22;27405;53.316;-6.294;2023-01-25T08:36:08;10.00;99.90
41720;DHT22;27405;53.316;-6.294;2023-01-25T08:38:34;10.00;99.90
41720;DHT22;27405;53.316;-6.294;2023-01-25T08:41:07;10.10;99.90
41720;DHT22;27405;53.316;-6.294;2023-01-25T08:43:33;10.10;99.90
41720;DHT22;27405;53.316;-6.294;2023-01-25T08:46:00;10.10;99.90
41720;DHT22;27405;53.316;-6.294;2023-01-25T08:48:25;10.20;99.90
41720;DHT22;27405;53.316;-6.294;2023-01-25T08:50:51;10.20;99.90
41720;DHT22;27405;53.316;-6.294;2023-01-25T08:53:17;10.20;99.90
41720;DHT22;27405;53.316;-6.294;2023-01-25T08:55:43;10.20;99.90
41720;DHT22;27405;53.316;-6.294;2023-01-25T08:58:10;10.20;99.90
41720;DHT22;27405;53.316;-6.294;2023-01-25T09:00:38;10.20;99.90
41720;DHT22;27405;53.316;-6.294;2023-01-25T09:03:04;10.30;99.90
41720;DHT22;27405;53.316;-6.294;2023-01-25T09:05:32;10.20;99.90
41720;DHT22;27405;53.316;-6.294;2023-01-25T09:07:58;10.30;99.90
41720;DHT22;27405;53.316;-6.294;2023-01-25T09:10:24;10.30;99.90
41720;DHT22;27405;53.316;-6.294;2023-01-25T09:12:49;10.30;99.90
41720;DHT22;27405;53.316;-6.294;2023-01-25T09:15:15;10.30;99.90
41720;DHT22;27405;53.316;-6.294;2023-01-25T09:17:41;10.40;99.90
41720;DHT22;27405;53.316;-6.294;2023-01-25T09:20:07;10.40;99.90
41720;DHT22;27405;53.316;-6.294;2023-01-25T09:22:33;10.40;99.90
41720;DHT22;27405;53.316;-6.294;2023-01-25T09:24:59;10.40;99.90
41720;DHT22;27405;53.316;-6.294;2023-01-25T09:27:25;10.50;99.90
41720;DHT22;27405;53.316;-6.294;2023-01-25T09:29:50;10.50;99.90
41720;DHT22;27405;53.316;-6.294;2023-01-25T09:32:16;10.60;99.90
41720;DHT22;27405;53.316;-6.294;2023-01-25T09:34:42;10.60;99.90
41720;DHT22;27405;53.316;-6.294;2023-01-25T09:37:07;10.60;99.90
41720;DHT22;27405;53.316;-6.294;2023-01-25T09:39:33;10.60;99.90
41720;DHT22;27405;53.316;-6.294;2023-01-25T09:48:02;10.70;99.90
41720;DHT22;27405;53.316;-6.294;2023-01-25T09:55:38;10.70;99.90
41720;DHT22;27405;53.316;-6.294;2023-01-25T09:58:16;10.70;99.90
41720;DHT22;27405;53.316;-6.294;2023-01-25T10:00:44;10.70;99.90
41720;DHT22;27405;53.316;-6.294;2023-01-25T10:05:52;10.70;99.90
41720;DHT22;27405;53.316;-6.294;2023-01-25T10:11:06;10.60;99.90
41720;DHT22;27405;53.316;-6.294;2023-01-25T10:13:36;10.60;99.90
41720;DHT22;27405;53.316;-6.294;2023-01-25T10:16:10;10.60;99.90
41720;DHT22;27405;53.316;-6.294;2023-01-25T10:21:43;10.60;99.90
41720;DHT22;27405;53.316;-6.294;2023-01-25T10:27:02;10.60;99.90
41720;DHT22;27405;53.316;-6.294;2023-01-25T10:29:35;10.70;99.90
41720;DHT22;27405;53.316;-6.294;2023-01-25T10:34:47;10.70;99.90
41720;DHT22;27405;53.316;-6.294;2023-01-25T10:37:35;10.70;99.90
41720;DHT22;27405;53.316;-6.294;2023-01-25T10:42:47;10.80;99.90
41720;DHT22;27405;53.316;-6.294;2023-01-25T10:45:15;10.90;99.90
41720;DHT22;27405;53.316;-6.294;2023-01-25T10:47:51;11.00;99.90
41720;DHT22;27405;53.316;-6.294;2023-01-25T10:56:05;11.10;99.90
41720;DHT22;27405;53.316;-6.294;2023-01-25T10:58:43;11.10;99.90
41720;DHT22;27405;53.316;-6.294;2023-01-25T11:01:33;11.10;99.90
41720;DHT22;27405;53.316;-6.294;2023-01-25T11:04:00;11.10;99.90
41720;DHT22;27405;53.316;-6.294;2023-01-25T11:06:34;11.10;99.90
41720;DHT22;27405;53.316;-6.294;2023-01-25T11:11:57;11.00;99.90
41720;DHT22;27405;53.316;-6.294;2023-01-25T11:14:25;11.00;99.90
41720;DHT22;27405;53.316;-6.294;2023-01-25T11:16:52;11.00;99.90
41720;DHT22;27405;53.316;-6.294;2023-01-25T11:21:54;11.00;99.90
41720;DHT22;27405;53.316;-6.294;2023-01-25T11:24:26;11.00;99.90
41720;DHT22;27405;53.316;-6.294;2023-01-25T11:27:21;11.00;99.90
41720;DHT22;27405;53.316;-6.294;2023-01-25T11:30:08;11.00;99.90
41720;DHT22;27405;53.316;-6.294;2023-01-25T11:32:38;11.00;99.90
41720;DHT22;27405;53.316;-6.294;2023-01-25T11:35:15;10.90;99.90
41720;DHT22;27405;53.316;-6.294;2023-01-25T11:40:36;10.80;99.90
41720;DHT22;27405;53.316;-6.294;2023-01-25T12:10:38;10.80;99.90
41720;DHT22;27405;53.316;-6.294;2023-01-25T12:21:58;10.80;99.90
41720;DHT22;27405;53.316;-6.294;2023-01-25T12:24:29;10.80;99.90
41720;DHT22;27405;53.316;-6.294;2023-01-25T12:29:48;10.80;99.90
41720;DHT22;27405;53.316;-6.294;2023-01-25T12:32:26;10.80;99.90
41720;DHT22;27405;53.316;-6.294;2023-01-25T12:37:42;10.80;99.90
41720;DHT22;27405;53.316;-6.294;2023-01-25T12:40:17;10.80;99.90
41720;DHT22;27405;53.316;-6.294;2023-01-25T12:42:52;10.80;99.90
41720;DHT22;27405;53.316;-6.294;2023-01-25T12:45:24;10.80;99.90
41720;DHT22;27405;53.316;-6.294;2023-01-25T12:50:34;10.80;99.90
41720;DHT22;27405;53.316;-6.294;2023-01-25T12:53:16;10.90;99.90
41720;DHT22;27405;53.316;-6.294;2023-01-25T12:55:44;10.90;99.90
41720;DHT22;27405;53.316;-6.294;2023-01-25T13:06:26;10.90;99.90
41720;DHT22;27405;53.316;-6.294;2023-01-25T13:11:34;10.80;99.90
41720;DHT22;27405;53.316;-6.294;2023-01-25T13:16:49;10.80;99.90
41720;DHT22;27405;53.316;-6.294;2023-01-25T13:21:49;10.70;99.90
41720;DHT22;27405;53.316;-6.294;2023-01-25T13:24:22;10.70;99.90
41720;DHT22;27405;53.316;-6.294;2023-01-25T13:32:10;10.50;99.90
41720;DHT22;27405;53.316;-6.294;2023-01-25T13:44:37;10.40;99.90
41720;DHT22;27405;53.316;-6.294;2023-01-25T13:47:10;10.30;99.90
41720;DHT22;27405;53.316;-6.294;2023-01-25T13:49:40;10.30;99.90
41720;DHT22;27405;53.316;-6.294;2023-01-25T13:52:10;10.40;99.90
41720;DHT22;27405;53.316;-6.294;2023-01-25T13:54:47;10.40;99.90
41720;DHT22;27405;53.316;-6.294;2023-01-25T13:57:18;10.50;99.90
41720;DHT22;27405;53.316;-6.294;2023-01-25T13:59:45;10.70;99.90
41720;DHT22;27405;53.316;-6.294;2023-01-25T14:02:18;10.90;99.90
41720;DHT22;27405;53.316;-6.294;2023-01-25T14:04:46;11.00;99.90
41720;DHT22;27405;53.316;-6.294;2023-01-25T14:07:18;11.00;99.90
41720;DHT22;27405;53.316;-6.294;2023-01-25T14:09:45;11.10;99.90
41720;DHT22;27405;53.316;-6.294;2023-01-25T14:12:32;11.10;99.90
41720;DHT22;27405;53.316;-6.294;2023-01-25T14:15:16;11.10;99.90
41720;DHT22;27405;53.316;-6.294;2023-01-25T14:17:42;11.20;99.90
41720;DHT22;27405;53.316;-6.294;2023-01-25T14:20:26;11.20;99.90
41720;DHT22;27405;53.316;-6.294;2023-01-25T14:22:52;11.20;99.90
41720;DHT22;27405;53.316;-6.294;2023-01-25T14:25:19;11.20;99.90
41720;DHT22;27405;53.316;-6.294;2023-01-25T14:27:50;11.20;99.90
41720;DHT22;27405;53.316;-6.294;2023-01-25T14:30:20;11.20;99.90
41720;DHT22;27405;53.316;-6.294;2023-01-25T14:32:47;11.10;99.90
41720;DHT22;27405;53.316;-6.294;2023-01-25T14:37:57;11.00;99.90
41720;DHT22;27405;53.316;-6.294;2023-01-25T14:40:26;10.90;99.90
41720;DHT22;27405;53.316;-6.294;2023-01-25T14:42:53;10.80;99.90
41720;DHT22;27405;53.316;-6.294;2023-01-25T14:45:20;10.70;99.90
41720;DHT22;27405;53.316;-6.294;2023-01-25T14:47:51;10.60;99.90
41720;DHT22;27405;53.316;-6.294;2023-01-25T14:52:57;10.60;99.90
41720;DHT22;27405;53.316;-6.294;2023-01-25T14:55:24;10.70;99.90
41720;DHT22;27405;53.316;-6.294;2023-01-25T14:57:50;10.70;99.90
41720;DHT22;27405;53.316;-6.294;2023-01-25T15:00:22;10.70;99.90
41720;DHT22;27405;53.316;-6.294;2023-01-25T15:05:25;10.60;99.90
41720;DHT22;27405;53.316;-6.294;2023-01-25T15:10:36;10.40;99.90
41720;DHT22;27405;53.316;-6.294;2023-01-25T15:15:53;10.20;99.90
41720;DHT22;27405;53.316;-6.294;2023-01-25T15:21:39;10.20;99.90
41720;DHT22;27405;53.316;-6.294;2023-01-25T15:24:09;10.10;99.90
41720;DHT22;27405;53.316;-6.294;2023-01-25T15:26:36;10.10;99.90
41720;DHT22;27405;53.316;-6.294;2023-01-25T15:29:14;10.00;99.90
41720;DHT22;27405;53.316;-6.294;2023-01-25T15:31:40;10.00;99.90
41720;DHT22;27405;53.316;-6.294;2023-01-25T15:34:27;9.90;99.90
41720;DHT22;27405;53.316;-6.294;2023-01-25T15:36:59;9.90;99.90
41720;DHT22;27405;53.316;-6.294;2023-01-25T15:39:25;9.90;99.90
41720;DHT22;27405;53.316;-6.294;2023-01-25T15:41:51;9.90;99.90
41720;DHT22;27405;53.316;-6.294;2023-01-25T15:44:17;9.90;99.90
41720;DHT22;27405;53.316;-6.294;2023-01-25T15:46:47;9.90;99.90
41720;DHT22;27405;53.316;-6.294;2023-01-25T15:49:17;9.80;99.90
41720;DHT22;27405;53.316;-6.294;2023-01-25T15:51:45;9.90;99.90
41720;DHT22;27405;53.316;-6.294;2023-01-25T15:54:11;9.90;99.90
41720;DHT22;27405;53.316;-6.294;2023-01-25T15:56:39;9.90;99.90
41720;DHT22;27405;53.316;-6.294;2023-01-25T15:59:11;9.90;99.90
41720;DHT22;27405;53.316;-6.294;2023-01-25T16:01:38;9.90;99.90
41720;DHT22;27405;53.316;-6.294;2023-01-25T16:04:04;9.90;99.90
41720;DHT22;27405;53.316;-6.294;2023-01-25T16:06:34;9.90;99.90
41720;DHT22;27405;53.316;-6.294;2023-01-25T16:09:19;9.80;99.90
41720;DHT22;27405;53.316;-6.294;2023-01-25T16:12:11;9.80;99.90
41720;DHT22;27405;53.316;-6.294;2023-01-25T16:14:37;9.70;99.90
41720;DHT22;27405;53.316;-6.294;2023-01-25T16:17:03;9.70;99.90
41720;DHT22;27405;53.316;-6.294;2023-01-25T16:19:30;9.60;99.90
41720;DHT22;27405;53.316;-6.294;2023-01-25T16:21:56;9.50;99.90
41720;DHT22;27405;53.316;-6.294;2023-01-25T16:24:22;9.40;99.90
41720;DHT22;27405;53.316;-6.294;2023-01-25T16:26:56;9.30;99.90
41720;DHT22;27405;53.316;-6.294;2023-01-25T16:29:22;9.30;99.90
41720;DHT22;27405;53.316;-6.294;2023-01-25T16:31:49;9.30;99.90
41720;DHT22;27405;53.316;-6.294;2023-01-25T16:34:14;9.20;99.90
41720;DHT22;27405;53.316;-6.294;2023-01-25T16:36:40;9.10;99.90
41720;DHT22;27405;53.316;-6.294;2023-01-25T16:39:24;9.10;99.90
41720;DHT22;27405;53.316;-6.294;2023-01-25T16:41:50;9.00;99.90
41720;DHT22;27405;53.316;-6.294;2023-01-25T16:44:16;9.00;99.90
41720;DHT22;27405;53.316;-6.294;2023-01-25T16:46:42;8.90;99.90
41720;DHT22;27405;53.316;-6.294;2023-01-25T16:49:16;8.90;99.90
41720;DHT22;27405;53.316;-6.294;2023-01-25T16:51:42;8.80;99.90
41720;DHT22;27405;53.316;-6.294;2023-01-25T16:54:10;8.80;99.90
41720;DHT22;27405;53.316;-6.294;2023-01-25T16:56:36;8.80;99.90
41720;DHT22;27405;53.316;-6.294;2023-01-25T16:59:03;8.70;99.90
41720;DHT22;27405;53.316;-6.294;2023-01-25T17:01:29;8.70;99.90
41720;DHT22;27405;53.316;-6.294;2023-01-25T17:03:56;8.60;99.90
41720;DHT22;27405;53.316;-6.294;2023-01-25T17:06:29;8.60;99.90
41720;DHT22;27405;53.316;-6.294;2023-01-25T17:09:00;8.60;99.90
41720;DHT22;27405;53.316;-6.294;2023-01-25T17:11:27;8.50;99.90
41720;DHT22;27405;53.316;-6.294;2023-01-25T17:13:55;8.50;99.90
41720;DHT22;27405;53.316;-6.294;2023-01-25T17:16:24;8.50;99.90
41720;DHT22;27405;53.316;-6.294;2023-01-25T17:19:13;8.40;99.90
41720;DHT22;27405;53.316;-6.294;2023-01-25T17:21:39;8.40;99.90
41720;DHT22;27405;53.316;-6.294;2023-01-25T17:24:06;8.30;99.90
41720;DHT22;27405;53.316;-6.294;2023-01-25T17:26:32;8.30;99.90
41720;DHT22;27405;53.316;-6.294;2023-01-25T17:29:00;8.30;99.90
41720;DHT22;27405;53.316;-6.294;2023-01-25T17:31:31;8.30;99.90
41720;DHT22;27405;53.316;-6.294;2023-01-25T17:34:00;8.20;99.90
41720;DHT22;27405;53.316;-6.294;2023-01-25T17:36:26;8.20;99.90
41720;DHT22;27405;53.316;-6.294;2023-01-25T17:38:52;8.10;99.90
41720;DHT22;27405;53.316;-6.294;2023-01-25T17:41:18;8.10;99.90
41720;DHT22;27405;53.316;-6.294;2023-01-25T17:43:44;8.10;99.90
41720;DHT22;27405;53.316;-6.294;2023-01-25T17:46:26;8.10;99.90
41720;DHT22;27405;53.316;-6.294;2023-01-25T17:48:55;8.10;99.90
41720;DHT22;27405;53.316;-6.294;2023-01-25T17:51:21;8.00;99.90
41720;DHT22;27405;53.316;-6.294;2023-01-25T17:53:47;8.00;99.90
41720;DHT22;27405;53.316;-6.294;2023-01-25T17:56:12;8.00;99.90
41720;DHT22;27405;53.316;-6.294;2023-01-25T17:58:40;7.90;99.90
41720;DHT22;27405;53.316;-6.294;2023-01-25T18:01:23;7.90;99.90